Terminal Aerodrome Forecast
Issued by NWS

Home | Current Version | Previous Version | Graphics & Text | Print | Product List | Glossary On
Versions: 1 2 3 4 5 6 7 8 9 10 11 12 13 14 15 16 17 18 19 20 21 22 23 24
000
FTUS43 KLSX 251800 AAA
TAFSUS
TAF AMD
KSUS 251858Z 2519/2618 11006KT P6SM VCTS FEW060CB OVC150
      TEMPO 2519/2521 3SM TSRA OVC050CB
     FM252100 15009KT P6SM SCT250
     FM260600 19005KT P6SM BKN250
     FM261400 24009KT P6SM BKN250=

USA.gov is the U.S. government's official web portal to all federal, state and local government web resources and services.